Time;durP1;ratioP1;P1;durP2;ratioP2;P2;SDS_P1;SDS_P2;PMS_P1;PMS_P2;Temp;Humidity;BMP_temperature;BMP_pressure;BME280_temperature;BME280_humidity;BME280_pressure;Samples;Min_cycle;Max_cycle;Signal;HPM_P1;HPM_P2
2022/06/03 00:01:08;;;;;;;;;;;20.20;52.60;;;;;;5067716;28;20682;-75
2022/06/03 00:03:43;;;;;;;;;;;20.10;52.60;;;;;;5074832;28;19951;-77
2022/06/03 00:06:25;;;;;;;;;;;20.10;52.70;;;;;;5078310;28;19935;-76
2022/06/03 00:09:12;;;;;;;;;;;20.10;52.70;;;;;;5025329;28;19932;-78
2022/06/03 00:11:51;;;;;;;;;;;20.00;52.70;;;;;;5069001;28;20015;-76
2022/06/03 00:14:36;;;;;;;;;;;20.00;52.90;;;;;;5074473;28;19928;-78
2022/06/03 00:17:07;;;;;;;;;;;20.00;52.90;;;;;;5067650;28;19932;-75
2022/06/03 00:19:41;;;;;;;;;;;19.90;52.90;;;;;;5073048;28;19935;-75
2022/06/03 00:22:25;;;;;;;;;;;19.90;53.00;;;;;;5071333;28;19993;-75
2022/06/03 00:25:01;;;;;;;;;;;19.90;53.20;;;;;;5057728;28;19935;-75
2022/06/03 00:27:35;;;;;;;;;;;19.80;53.10;;;;;;5071706;28;19928;-75
2022/06/03 00:30:11;;;;;;;;;;;19.80;53.30;;;;;;5069819;28;19932;-76
2022/06/03 00:32:52;;;;;;;;;;;19.80;53.30;;;;;;5075404;28;19932;-77
2022/06/03 00:35:29;;;;;;;;;;;19.70;53.30;;;;;;5074881;28;19929;-76
2022/06/03 00:37:57;;;;;;;;;;;19.70;53.40;;;;;;5068125;28;20383;-77
2022/06/03 00:40:29;;;;;;;;;;;19.60;53.50;;;;;;5071424;28;19928;-75
2022/06/03 00:43:05;;;;;;;;;;;19.60;53.50;;;;;;5069610;28;19925;-78
2022/06/03 00:45:42;;;;;;;;;;;19.60;53.50;;;;;;5077530;28;19936;-75
2022/06/03 00:48:18;;;;;;;;;;;19.60;53.60;;;;;;5069080;28;19939;-76
2022/06/03 00:50:55;;;;;;;;;;;19.50;53.60;;;;;;5067426;28;19939;-75
2022/06/03 00:53:43;;;;;;;;;;;19.50;53.70;;;;;;5072229;28;19928;-78
2022/06/03 00:56:30;;;;;;;;;;;19.50;53.80;;;;;;5044707;28;20012;-75
2022/06/03 00:59:02;;;;;;;;;;;19.40;53.60;;;;;;5070931;28;19935;-78
2022/06/03 01:01:32;;;;;;;;;;;19.40;53.60;;;;;;5072633;28;20028;-78
2022/06/03 01:04:15;;;;;;;;;;;19.40;53.70;;;;;;5071102;28;19932;-76
2022/06/03 01:06:47;;;;;;;;;;;19.30;53.80;;;;;;5071988;28;19932;-76
2022/06/03 01:09:22;;;;;;;;;;;19.30;53.90;;;;;;5071578;28;20462;-75
2022/06/03 01:12:00;;;;;;;;;;;19.30;54.00;;;;;;5071714;28;19939;-76
2022/06/03 01:14:32;;;;;;;;;;;19.30;54.10;;;;;;5072575;28;19927;-78
2022/06/03 01:17:06;;;;;;;;;;;19.30;54.00;;;;;;5070604;28;19932;-78
2022/06/03 01:19:47;;;;;;;;;;;19.20;54.00;;;;;;5079927;28;19936;-75
2022/06/03 01:22:25;;;;;;;;;;;19.20;54.10;;;;;;5075812;28;19951;-76
2022/06/03 01:25:02;;;;;;;;;;;19.20;54.20;;;;;;5081975;28;19939;-77
2022/06/03 01:27:39;;;;;;;;;;;19.10;54.10;;;;;;5073240;28;20391;-76
2022/06/03 01:33:15;;;;;;;;;;;19.10;54.40;;;;;;5066826;28;19927;-75
2022/06/03 01:36:00;;;;;;;;;;;19.00;54.40;;;;;;5071687;28;19932;-76
2022/06/03 01:38:33;;;;;;;;;;;19.00;54.40;;;;;;5067947;28;19928;-78
2022/06/03 01:41:05;;;;;;;;;;;19.00;54.70;;;;;;5070976;28;20403;-78
2022/06/03 01:43:52;;;;;;;;;;;19.00;55.40;;;;;;5072245;28;19932;-75
2022/06/03 01:46:26;;;;;;;;;;;18.90;54.70;;;;;;5075186;28;19928;-75
2022/06/03 01:49:16;;;;;;;;;;;18.90;54.80;;;;;;5074135;28;20206;-76
2022/06/03 01:51:58;;;;;;;;;;;18.90;55.00;;;;;;5074188;28;19929;-76
2022/06/03 01:54:43;;;;;;;;;;;18.80;55.00;;;;;;5074581;28;20559;-75
2022/06/03 01:57:27;;;;;;;;;;;18.80;55.10;;;;;;5073734;28;19928;-75
2022/06/03 02:00:19;;;;;;;;;;;18.80;55.10;;;;;;5061628;28;19928;-75
2022/06/03 02:03:01;;;;;;;;;;;18.70;55.00;;;;;;5070670;28;20380;-75
2022/06/03 02:05:46;;;;;;;;;;;18.70;55.10;;;;;;5071837;28;19939;-77
2022/06/03 02:08:39;;;;;;;;;;;18.70;54.80;;;;;;5039009;28;19936;-76
2022/06/03 02:11:17;;;;;;;;;;;18.70;55.30;;;;;;5037613;28;19932;-75
2022/06/03 02:13:50;;;;;;;;;;;18.70;55.40;;;;;;5073995;28;19955;-76
2022/06/03 02:16:38;;;;;;;;;;;18.60;55.50;;;;;;5074536;28;19932;-75
2022/06/03 02:19:12;;;;;;;;;;;18.60;55.50;;;;;;5078054;28;19966;-76
2022/06/03 02:21:57;;;;;;;;;;;18.50;55.60;;;;;;5070333;28;19932;-75
2022/06/03 02:24:38;;;;;;;;;;;18.50;55.60;;;;;;5073002;28;19935;-76
2022/06/03 02:27:29;;;;;;;;;;;18.50;55.30;;;;;;5057092;28;19929;-77
2022/06/03 02:30:26;;;;;;;;;;;18.50;55.80;;;;;;5073982;28;19932;-78
2022/06/03 02:33:12;;;;;;;;;;;18.40;55.90;;;;;;5071444;28;19924;-75
2022/06/03 02:35:53;;;;;;;;;;;18.40;55.90;;;;;;5075091;28;20022;-75
2022/06/03 02:38:30;;;;;;;;;;;18.40;55.90;;;;;;5075358;28;20007;-78
2022/06/03 02:41:09;;;;;;;;;;;18.40;56.10;;;;;;5078078;28;19951;-78
2022/06/03 02:43:53;;;;;;;;;;;18.30;56.00;;;;;;5071212;28;19935;-77
2022/06/03 02:46:31;;;;;;;;;;;18.30;56.00;;;;;;5072126;28;19935;-78
2022/06/03 02:49:20;;;;;;;;;;;18.30;56.20;;;;;;5073395;28;20145;-75
2022/06/03 02:52:03;;;;;;;;;;;18.30;56.20;;;;;;5074251;28;20378;-76
2022/06/03 02:54:48;;;;;;;;;;;18.20;56.30;;;;;;5071141;28;19985;-78
2022/06/03 02:57:29;;;;;;;;;;;18.20;56.30;;;;;;5070515;28;19932;-76
2022/06/03 03:00:16;;;;;;;;;;;18.20;56.40;;;;;;5069983;28;19928;-77
2022/06/03 03:03:01;;;;;;;;;;;18.20;56.50;;;;;;5072551;28;19928;-77
2022/06/03 03:05:37;;;;;;;;;;;18.10;56.40;;;;;;5076264;28;20545;-76
2022/06/03 03:08:22;;;;;;;;;;;18.10;56.50;;;;;;5068457;28;19928;-74
2022/06/03 03:11:09;;;;;;;;;;;18.10;56.60;;;;;;5070669;28;20185;-75
2022/06/03 03:14:00;;;;;;;;;;;18.00;56.60;;;;;;5063551;28;19929;-75
2022/06/03 03:16:36;;;;;;;;;;;18.00;56.80;;;;;;5073032;28;19935;-76
2022/06/03 03:19:18;;;;;;;;;;;18.00;56.80;;;;;;5072614;28;19928;-75
2022/06/03 03:21:56;;;;;;;;;;;18.00;56.80;;;;;;5070431;28;19939;-75
2022/06/03 03:24:49;;;;;;;;;;;17.90;56.70;;;;;;5071054;28;19932;-76
2022/06/03 03:27:21;;;;;;;;;;;17.90;56.70;;;;;;5071033;28;19930;-76
2022/06/03 03:30:02;;;;;;;;;;;17.90;56.70;;;;;;5072363;28;19932;-75
2022/06/03 03:32:44;;;;;;;;;;;17.80;56.80;;;;;;5071667;28;19928;-76
2022/06/03 03:35:19;;;;;;;;;;;17.80;56.80;;;;;;5067512;28;19931;-75
2022/06/03 03:37:56;;;;;;;;;;;17.80;56.90;;;;;;5072306;28;19928;-76
2022/06/03 03:40:37;;;;;;;;;;;17.80;56.90;;;;;;5074464;28;19928;-75
2022/06/03 03:43:25;;;;;;;;;;;17.80;57.00;;;;;;5069699;28;19924;-75
2022/06/03 03:46:09;;;;;;;;;;;17.70;57.50;;;;;;5066131;28;19929;-77
2022/06/03 03:48:53;;;;;;;;;;;17.70;57.00;;;;;;5072518;28;19935;-77
2022/06/03 03:51:28;;;;;;;;;;;17.70;56.90;;;;;;5077424;28;19935;-74
2022/06/03 03:54:28;;;;;;;;;;;17.70;56.90;;;;;;5073138;28;20673;-76
2022/06/03 03:57:21;;;;;;;;;;;17.70;56.80;;;;;;5071696;28;19935;-76
2022/06/03 03:59:58;;;;;;;;;;;17.60;56.80;;;;;;5071697;28;19928;-76
2022/06/03 04:02:36;;;;;;;;;;;17.60;56.90;;;;;;5067128;28;19929;-77
2022/06/03 04:05:27;;;;;;;;;;;17.60;56.90;;;;;;5070628;28;19935;-75
2022/06/03 04:08:08;;;;;;;;;;;17.60;57.00;;;;;;5067742;28;19924;-75
2022/06/03 04:10:48;;;;;;;;;;;17.50;57.00;;;;;;5067957;28;19928;-79
2022/06/03 04:13:39;;;;;;;;;;;17.50;57.00;;;;;;5069186;28;20466;-78
2022/06/03 04:16:23;;;;;;;;;;;17.50;57.00;;;;;;5069563;28;19939;-74
2022/06/03 04:19:11;;;;;;;;;;;17.50;57.00;;;;;;5069061;28;20728;-78
2022/06/03 04:21:51;;;;;;;;;;;17.50;57.00;;;;;;5067711;28;19936;-76
2022/06/03 04:24:42;;;;;;;;;;;17.50;57.00;;;;;;5071974;28;20285;-75
2022/06/03 04:27:26;;;;;;;;;;;17.50;57.00;;;;;;5069470;28;19935;-74
2022/06/03 04:30:09;;;;;;;;;;;17.40;57.00;;;;;;5066102;28;19929;-77
2022/06/03 04:32:54;;;;;;;;;;;17.40;57.00;;;;;;5067616;28;20441;-75
2022/06/03 04:35:40;;;;;;;;;;;17.40;57.10;;;;;;5069685;28;20799;-79
2022/06/03 04:38:24;;;;;;;;;;;17.40;57.20;;;;;;5075630;28;19932;-75
2022/06/03 04:41:11;;;;;;;;;;;17.40;57.20;;;;;;5074504;28;19933;-77
2022/06/03 04:44:07;;;;;;;;;;;17.30;57.20;;;;;;5072912;28;20647;-75
2022/06/03 04:46:53;;;;;;;;;;;17.30;57.20;;;;;;5074655;28;19932;-75
2022/06/03 04:49:40;;;;;;;;;;;17.30;57.20;;;;;;5071655;28;20561;-76
2022/06/03 04:52:26;;;;;;;;;;;17.30;57.20;;;;;;5077464;28;19955;-75
2022/06/03 04:55:11;;;;;;;;;;;17.20;57.40;;;;;;5071986;28;19935;-75
2022/06/03 04:57:57;;;;;;;;;;;17.30;57.30;;;;;;5073090;28;19982;-74
2022/06/03 05:00:28;;;;;;;;;;;17.30;57.30;;;;;;5070557;28;19932;-72
2022/06/03 05:03:22;;;;;;;;;;;17.20;57.40;;;;;;5080356;28;19993;-75
2022/06/03 05:06:07;;;;;;;;;;;17.20;57.50;;;;;;5075737;28;19935;-75
2022/06/03 05:08:55;;;;;;;;;;;17.20;57.50;;;;;;5074537;28;19931;-77
2022/06/03 05:11:55;;;;;;;;;;;17.20;57.30;;;;;;5074299;28;20686;-76
2022/06/03 05:14:44;;;;;;;;;;;17.20;57.40;;;;;;5079529;28;19932;-79
2022/06/03 05:17:18;;;;;;;;;;;17.10;57.30;;;;;;5077896;28;19936;-76
2022/06/03 05:20:08;;;;;;;;;;;17.10;57.30;;;;;;5086690;28;19928;-76
2022/06/03 05:22:46;;;;;;;;;;;17.10;57.20;;;;;;5081333;28;20354;-76
2022/06/03 05:25:23;;;;;;;;;;;17.10;57.20;;;;;;5087564;28;19932;-77
2022/06/03 05:28:08;;;;;;;;;;;17.10;57.30;;;;;;5079334;28;19935;-75
2022/06/03 05:30:47;;;;;;;;;;;17.10;57.30;;;;;;5075001;28;20277;-78
2022/06/03 05:33:34;;;;;;;;;;;17.10;57.20;;;;;;5078522;28;20381;-76
2022/06/03 05:36:19;;;;;;;;;;;17.10;57.30;;;;;;5078374;28;20538;-76
2022/06/03 05:38:56;;;;;;;;;;;17.10;57.30;;;;;;5076102;28;20019;-74
2022/06/03 05:44:20;;;;;;;;;;;17.20;57.20;;;;;;5072507;28;19931;-77
2022/06/03 05:46:51;;;;;;;;;;;17.20;57.20;;;;;;5069677;28;19939;-77
2022/06/03 05:49:27;;;;;;;;;;;17.20;57.20;;;;;;5072710;28;19932;-75
2022/06/03 05:52:03;;;;;;;;;;;17.20;57.20;;;;;;5074591;28;20414;-74
2022/06/03 05:54:35;;;;;;;;;;;17.10;57.10;;;;;;5076683;28;19928;-74
2022/06/03 05:57:09;;;;;;;;;;;17.20;57.20;;;;;;5072876;28;19945;-75
2022/06/03 05:59:48;;;;;;;;;;;17.20;57.20;;;;;;5069738;28;20357;-74
2022/06/03 06:02:19;;;;;;;;;;;17.20;57.10;;;;;;5071329;28;19925;-74
2022/06/03 06:04:55;;;;;;;;;;;17.20;57.00;;;;;;5075086;28;19932;-76
2022/06/03 06:07:26;;;;;;;;;;;17.20;57.00;;;;;;5067619;28;19936;-74
2022/06/03 06:09:55;;;;;;;;;;;17.20;57.00;;;;;;5071007;28;20006;-75
2022/06/03 06:12:29;;;;;;;;;;;17.30;57.10;;;;;;5066488;28;19935;-77
2022/06/03 06:15:08;;;;;;;;;;;17.30;57.10;;;;;;5076084;28;19928;-74
2022/06/03 06:17:42;;;;;;;;;;;17.20;57.00;;;;;;5071488;28;19939;-76
2022/06/03 06:20:13;;;;;;;;;;;17.30;57.10;;;;;;5070072;28;20570;-74
2022/06/03 06:22:45;;;;;;;;;;;17.30;57.00;;;;;;5072454;28;20023;-74
2022/06/03 06:25:14;;;;;;;;;;;17.30;57.00;;;;;;5073356;28;19928;-74
2022/06/03 06:28:00;;;;;;;;;;;17.30;57.00;;;;;;5076078;28;20388;-74
2022/06/03 06:30:39;;;;;;;;;;;17.30;57.10;;;;;;5069764;28;19939;-74
2022/06/03 06:33:24;;;;;;;;;;;17.30;57.00;;;;;;5076397;28;19973;-75
2022/06/03 06:35:58;;;;;;;;;;;17.30;56.90;;;;;;5078637;28;19928;-74
2022/06/03 06:38:31;;;;;;;;;;;17.30;56.80;;;;;;5077291;28;19935;-74
2022/06/03 06:41:05;;;;;;;;;;;17.40;56.80;;;;;;5078530;28;20178;-76
2022/06/03 06:43:36;;;;;;;;;;;17.40;56.70;;;;;;5080520;28;19932;-75
2022/06/03 06:46:07;;;;;;;;;;;17.40;56.70;;;;;;5077287;28;19943;-74
2022/06/03 06:48:39;;;;;;;;;;;17.40;56.60;;;;;;5074075;28;19935;-74
2022/06/03 06:51:13;;;;;;;;;;;17.50;56.70;;;;;;5077042;28;20732;-75
2022/06/03 06:53:43;;;;;;;;;;;17.50;56.70;;;;;;5077043;28;19928;-74
2022/06/03 06:56:14;;;;;;;;;;;17.50;56.90;;;;;;5076852;28;19996;-74
2022/06/03 06:58:44;;;;;;;;;;;17.50;56.80;;;;;;5077115;28;19927;-76
2022/06/03 07:01:13;;;;;;;;;;;17.50;56.80;;;;;;5070761;28;19932;-74
2022/06/03 07:03:44;;;;;;;;;;;17.60;56.80;;;;;;5069788;28;19934;-74
2022/06/03 07:06:14;;;;;;;;;;;17.60;57.00;;;;;;5070468;28;20419;-75
2022/06/03 07:08:45;;;;;;;;;;;17.60;57.00;;;;;;5069637;28;19928;-75
2022/06/03 07:11:13;;;;;;;;;;;17.60;57.10;;;;;;5074890;28;19935;-75
2022/06/03 07:13:42;;;;;;;;;;;17.60;57.00;;;;;;5075849;28;19972;-76
2022/06/03 07:16:10;;;;;;;;;;;17.60;57.00;;;;;;5072596;28;20002;-73
2022/06/03 07:21:34;;;;;;;;;;;17.70;57.50;;;;;;5066717;28;19951;-74
2022/06/03 07:24:06;;;;;;;;;;;17.70;57.40;;;;;;5076689;28;20422;-75
2022/06/03 07:26:35;;;;;;;;;;;17.70;57.40;;;;;;5074685;28;19967;-74
2022/06/03 07:29:07;;;;;;;;;;;17.80;57.50;;;;;;5074925;28;19933;-74
2022/06/03 07:31:37;;;;;;;;;;;17.80;57.50;;;;;;5061521;28;19928;-73
2022/06/03 07:34:06;;;;;;;;;;;17.80;57.60;;;;;;5075696;28;19928;-72
2022/06/03 07:36:36;;;;;;;;;;;17.90;57.70;;;;;;5065198;28;19975;-72
2022/06/03 07:39:11;;;;;;;;;;;17.90;57.90;;;;;;5068315;28;19939;-72
2022/06/03 07:41:40;;;;;;;;;;;17.90;57.80;;;;;;5069403;28;21004;-73
2022/06/03 07:44:12;;;;;;;;;;;17.90;57.80;;;;;;5069883;28;19981;-75
2022/06/03 07:46:42;;;;;;;;;;;18.00;58.00;;;;;;5071644;28;19935;-74
2022/06/03 07:49:09;;;;;;;;;;;18.00;57.80;;;;;;5074678;28;19933;-67
2022/06/03 07:51:38;;;;;;;;;;;18.00;58.10;;;;;;5067692;28;20657;-67
2022/06/03 07:54:07;;;;;;;;;;;18.10;58.20;;;;;;5076069;28;19982;-64
2022/06/03 07:56:35;;;;;;;;;;;18.10;58.20;;;;;;5082034;28;19928;-64
2022/06/03 07:59:04;;;;;;;;;;;18.20;58.50;;;;;;5074636;28;19935;-67
2022/06/03 08:01:32;;;;;;;;;;;18.20;58.50;;;;;;5080368;28;19946;-67
2022/06/03 08:03:58;;;;;;;;;;;18.20;58.50;;;;;;5077069;28;19928;-67
2022/06/03 08:06:26;;;;;;;;;;;18.20;58.50;;;;;;5081690;28;19988;-67
2022/06/03 08:11:42;;;;;;;;;;;18.30;58.80;;;;;;5080271;28;19935;-65
2022/06/03 08:14:09;;;;;;;;;;;18.40;58.90;;;;;;5078368;28;19928;-65
2022/06/03 08:16:37;;;;;;;;;;;18.40;58.80;;;;;;5074948;28;19935;-64
2022/06/03 08:19:07;;;;;;;;;;;18.50;58.90;;;;;;5077554;28;19934;-64
2022/06/03 08:21:38;;;;;;;;;;;18.50;58.80;;;;;;5081417;28;19938;-65
2022/06/03 08:24:06;;;;;;;;;;;18.50;58.90;;;;;;5071702;28;20494;-66
2022/06/03 08:26:33;;;;;;;;;;;18.60;58.90;;;;;;5079722;28;19924;-66
2022/06/03 08:29:09;;;;;;;;;;;18.60;59.00;;;;;;5071591;28;20446;-67
2022/06/03 08:31:36;;;;;;;;;;;18.60;58.90;;;;;;5074336;28;20069;-67
2022/06/03 08:34:03;;;;;;;;;;;18.70;59.10;;;;;;5078182;28;20500;-64
2022/06/03 08:36:31;;;;;;;;;;;18.80;59.00;;;;;;5075556;28;19936;-67
2022/06/03 08:39:02;;;;;;;;;;;18.80;59.10;;;;;;5079393;28;19928;-67
2022/06/03 08:41:43;;;;;;;;;;;18.80;59.00;;;;;;5075661;28;19978;-68
2022/06/03 08:44:22;;;;;;;;;;;18.90;59.00;;;;;;5065973;28;19928;-66
2022/06/03 08:46:52;;;;;;;;;;;19.00;59.10;;;;;;5071965;28;19942;-66
2022/06/03 08:49:19;;;;;;;;;;;18.90;58.90;;;;;;5079661;28;19957;-68
2022/06/03 08:51:48;;;;;;;;;;;19.00;58.90;;;;;;5072422;28;20350;-66
2022/06/03 08:54:20;;;;;;;;;;;19.10;59.10;;;;;;5076530;28;19935;-65
2022/06/03 08:56:48;;;;;;;;;;;19.20;59.20;;;;;;5080376;28;19928;-69
2022/06/03 08:59:18;;;;;;;;;;;19.20;59.30;;;;;;5076054;28;20419;-66
2022/06/03 09:01:47;;;;;;;;;;;19.30;59.30;;;;;;5070518;28;19975;-66
2022/06/03 09:04:18;;;;;;;;;;;19.30;59.20;;;;;;5066273;28;19932;-65
2022/06/03 09:06:52;;;;;;;;;;;19.30;59.20;;;;;;5067343;28;19932;-65
2022/06/03 09:09:26;;;;;;;;;;;19.40;59.10;;;;;;5073897;28;20410;-68
2022/06/03 09:11:55;;;;;;;;;;;19.50;59.10;;;;;;5072038;28;19939;-67
2022/06/03 09:14:24;;;;;;;;;;;19.50;59.10;;;;;;5071726;28;19935;-64
2022/06/03 09:16:53;;;;;;;;;;;19.60;59.20;;;;;;5073440;28;19932;-69
2022/06/03 09:19:23;;;;;;;;;;;19.70;59.20;;;;;;5070583;28;19932;-68
2022/06/03 09:21:51;;;;;;;;;;;19.70;59.20;;;;;;5068163;28;19944;-72
2022/06/03 09:24:20;;;;;;;;;;;19.80;59.20;;;;;;5073748;28;20006;-68
2022/06/03 09:26:48;;;;;;;;;;;19.80;59.20;;;;;;5073558;28;19928;-67
2022/06/03 09:29:15;;;;;;;;;;;19.90;59.20;;;;;;5070535;28;19932;-65
2022/06/03 09:31:46;;;;;;;;;;;19.90;59.20;;;;;;5076308;28;19932;-63
2022/06/03 09:34:13;;;;;;;;;;;20.00;59.10;;;;;;5078178;28;20473;-65
2022/06/03 09:36:40;;;;;;;;;;;20.10;59.20;;;;;;5076013;28;19935;-64
2022/06/03 09:39:08;;;;;;;;;;;20.20;59.10;;;;;;5079381;28;19928;-67
2022/06/03 09:41:36;;;;;;;;;;;20.20;59.00;;;;;;5074897;28;20010;-68
2022/06/03 09:44:03;;;;;;;;;;;20.30;58.80;;;;;;5076555;28;19932;-67
2022/06/03 09:46:31;;;;;;;;;;;20.40;58.70;;;;;;5077082;28;19924;-68
2022/06/03 09:48:59;;;;;;;;;;;20.50;58.80;;;;;;5074068;28;19928;-67
2022/06/03 09:54:07;;;;;;;;;;;20.60;58.60;;;;;;5074101;28;19935;-65
2022/06/03 09:56:34;;;;;;;;;;;20.70;58.00;;;;;;5077357;28;20370;-65
2022/06/03 09:59:02;;;;;;;;;;;20.80;58.50;;;;;;5075155;28;19928;-69
2022/06/03 10:01:29;;;;;;;;;;;20.90;58.50;;;;;;5071784;28;19928;-71
2022/06/03 10:03:56;;;;;;;;;;;20.90;58.40;;;;;;5077543;28;19932;-68
2022/06/03 10:14:37;;;;;;;;;;;21.30;58.20;;;;;;5075379;28;19935;-66
2022/06/03 10:17:04;;;;;;;;;;;21.30;58.10;;;;;;5072783;28;19978;-66
2022/06/03 10:19:31;;;;;;;;;;;21.40;58.10;;;;;;5079821;28;19928;-68
2022/06/03 10:21:59;;;;;;;;;;;21.50;57.90;;;;;;5076989;28;19931;-67
2022/06/03 10:24:30;;;;;;;;;;;21.60;57.80;;;;;;5076698;28;19928;-67
2022/06/03 10:27:00;;;;;;;;;;;21.60;57.70;;;;;;5073395;28;19983;-69
2022/06/03 10:29:27;;;;;;;;;;;21.70;57.80;;;;;;5066747;28;19932;-66
2022/06/03 10:31:55;;;;;;;;;;;21.80;57.70;;;;;;5074739;28;20783;-66
2022/06/03 10:34:23;;;;;;;;;;;21.90;57.70;;;;;;5069506;28;20721;-74
2022/06/03 10:36:52;;;;;;;;;;;21.90;57.60;;;;;;5067855;28;20027;-74
2022/06/03 10:39:20;;;;;;;;;;;22.00;57.80;;;;;;5071609;28;19935;-75
2022/06/03 10:41:47;;;;;;;;;;;22.00;57.40;;;;;;5073321;28;19932;-75
2022/06/03 10:44:15;;;;;;;;;;;22.10;57.40;;;;;;5071120;28;19971;-75
2022/06/03 10:46:51;;;;;;;;;;;22.20;57.40;;;;;;5070626;28;19928;-75
2022/06/03 10:49:27;;;;;;;;;;;22.20;57.20;;;;;;5070911;28;19932;-75
2022/06/03 11:02:54;;;;;;;;;;;22.60;57.00;;;;;;5069976;28;19954;-76
2022/06/03 11:05:22;;;;;;;;;;;22.60;56.70;;;;;;5082889;28;19932;-76
2022/06/03 11:07:57;;;;;;;;;;;22.70;56.70;;;;;;5072437;28;19935;-76
2022/06/03 11:10:27;;;;;;;;;;;22.80;56.70;;;;;;5078063;28;21184;-77
2022/06/03 11:12:58;;;;;;;;;;;22.90;56.50;;;;;;5074310;28;20380;-76
2022/06/03 11:15:31;;;;;;;;;;;23.00;56.30;;;;;;5074030;28;21461;-76
2022/06/03 11:17:58;;;;;;;;;;;23.00;56.20;;;;;;5070201;28;21374;-76
2022/06/03 11:20:34;;;;;;;;;;;23.10;56.10;;;;;;5069794;28;20404;-75
2022/06/03 11:23:01;;;;;;;;;;;23.20;56.00;;;;;;5076496;28;20354;-77
2022/06/03 11:25:30;;;;;;;;;;;23.20;55.80;;;;;;5073198;28;19924;-75
2022/06/03 11:27:59;;;;;;;;;;;23.40;55.80;;;;;;5072683;28;19932;-77
2022/06/03 11:30:31;;;;;;;;;;;23.30;55.60;;;;;;5072506;28;19940;-75
2022/06/03 11:33:00;;;;;;;;;;;23.40;55.50;;;;;;5073179;28;19928;-77
2022/06/03 11:35:28;;;;;;;;;;;23.40;55.90;;;;;;5068696;28;19932;-76
2022/06/03 11:37:57;;;;;;;;;;;23.80;56.00;;;;;;5071112;28;19933;-76
2022/06/03 11:40:25;;;;;;;;;;;24.20;55.20;;;;;;5072772;28;19932;-74
2022/06/03 11:42:56;;;;;;;;;;;24.70;54.30;;;;;;5071609;28;19974;-75
2022/06/03 11:45:27;;;;;;;;;;;25.00;54.50;;;;;;5071485;28;19932;-75
2022/06/03 11:47:55;;;;;;;;;;;25.40;54.40;;;;;;5071283;28;19928;-75
2022/06/03 11:50:23;;;;;;;;;;;25.60;53.90;;;;;;5069816;28;19928;-74
2022/06/03 11:52:50;;;;;;;;;;;25.90;53.70;;;;;;5073691;28;20288;-75
2022/06/03 11:55:17;;;;;;;;;;;26.00;52.80;;;;;;5073437;28;20015;-76
2022/06/03 11:57:48;;;;;;;;;;;25.90;53.10;;;;;;5078914;28;19927;-77
2022/06/03 12:00:19;;;;;;;;;;;25.60;53.40;;;;;;5069991;28;19932;-73
2022/06/03 12:02:49;;;;;;;;;;;25.40;53.90;;;;;;5069601;28;19935;-73
2022/06/03 12:05:17;;;;;;;;;;;25.10;54.30;;;;;;5070659;28;20026;-73
2022/06/03 12:07:46;;;;;;;;;;;24.90;54.60;;;;;;5070198;28;19936;-74
2022/06/03 12:10:15;;;;;;;;;;;24.80;54.90;;;;;;5070815;28;19936;-73
2022/06/03 12:15:38;;;;;;;;;;;24.60;55.30;;;;;;5072900;28;19935;-77
2022/06/03 12:18:17;;;;;;;;;;;24.50;55.30;;;;;;5073563;28;20426;-79
2022/06/03 12:20:52;;;;;;;;;;;24.50;55.20;;;;;;5079684;28;19936;-76
2022/06/03 12:23:37;;;;;;;;;;;24.50;55.20;;;;;;5074294;28;19939;-78
2022/06/03 12:26:09;;;;;;;;;;;24.50;55.20;;;;;;5071513;28;20388;-77
2022/06/03 12:28:42;;;;;;;;;;;24.50;55.30;;;;;;5070681;28;20299;-76
2022/06/03 12:31:14;;;;;;;;;;;24.50;55.30;;;;;;5073066;28;19989;-75
2022/06/03 12:33:45;;;;;;;;;;;24.50;55.20;;;;;;5072541;28;19925;-75
2022/06/03 12:36:27;;;;;;;;;;;24.50;55.30;;;;;;5070284;28;19975;-76
2022/06/03 12:38:55;;;;;;;;;;;24.50;55.20;;;;;;5070083;28;20471;-75
2022/06/03 12:41:52;;;;;;;;;;;24.50;55.10;;;;;;5072157;28;19929;-77
2022/06/03 12:44:39;;;;;;;;;;;24.60;55.10;;;;;;5010418;28;19936;-76
2022/06/03 12:47:25;;;;;;;;;;;24.60;55.10;;;;;;5063017;28;19944;-74
2022/06/03 12:49:54;;;;;;;;;;;24.60;55.00;;;;;;5072112;28;19940;-76
2022/06/03 12:52:37;;;;;;;;;;;24.60;55.00;;;;;;5072765;28;19927;-76
2022/06/03 12:55:06;;;;;;;;;;;24.60;55.10;;;;;;5077061;28;19935;-75
2022/06/03 12:57:38;;;;;;;;;;;24.60;55.30;;;;;;5072994;28;19940;-74
2022/06/03 13:00:06;;;;;;;;;;;24.60;55.20;;;;;;5074046;28;19936;-76
2022/06/03 13:02:36;;;;;;;;;;;24.60;55.10;;;;;;5068633;28;20368;-74
2022/06/03 13:05:11;;;;;;;;;;;24.70;55.20;;;;;;5070295;28;19928;-75
2022/06/03 13:07:55;;;;;;;;;;;24.70;55.30;;;;;;5065907;28;19935;-74
2022/06/03 13:10:25;;;;;;;;;;;24.70;55.20;;;;;;5077004;28;19928;-76
2022/06/03 13:12:52;;;;;;;;;;;24.70;55.20;;;;;;5071718;28;19932;-74
2022/06/03 13:15:37;;;;;;;;;;;24.80;55.10;;;;;;5077616;28;19928;-75
2022/06/03 13:18:10;;;;;;;;;;;24.80;55.00;;;;;;5074224;28;19933;-74
2022/06/03 13:20:38;;;;;;;;;;;24.80;54.90;;;;;;5075265;28;19969;-74
2022/06/03 13:23:19;;;;;;;;;;;24.80;54.90;;;;;;5072042;28;19932;-74
2022/06/03 13:25:48;;;;;;;;;;;24.90;54.90;;;;;;5072705;28;19924;-76
2022/06/03 13:28:23;;;;;;;;;;;24.90;55.00;;;;;;5074247;28;20276;-76
2022/06/03 13:31:08;;;;;;;;;;;24.90;54.90;;;;;;5073683;28;19928;-75
2022/06/03 13:33:50;;;;;;;;;;;24.90;54.90;;;;;;5074503;28;20699;-75
2022/06/03 13:36:30;;;;;;;;;;;24.90;54.90;;;;;;5071198;28;19931;-74
2022/06/03 13:38:57;;;;;;;;;;;25.00;55.00;;;;;;5077786;28;19959;-78
2022/06/03 13:44:11;;;;;;;;;;;25.00;54.70;;;;;;5075404;28;19939;-76
2022/06/03 13:46:39;;;;;;;;;;;25.00;54.70;;;;;;5076561;28;19935;-76
2022/06/03 13:49:14;;;;;;;;;;;25.10;54.70;;;;;;5073183;28;19932;-73
2022/06/03 13:52:02;;;;;;;;;;;25.10;54.80;;;;;;5081444;28;19924;-73
2022/06/03 13:54:33;;;;;;;;;;;25.10;54.90;;;;;;5074670;28;19939;-74
2022/06/03 13:57:06;;;;;;;;;;;25.10;54.80;;;;;;5071911;28;20459;-74
2022/06/03 13:59:34;;;;;;;;;;;25.10;54.80;;;;;;5073392;28;19936;-74
2022/06/03 14:02:01;;;;;;;;;;;25.10;54.80;;;;;;5074626;28;19955;-75
2022/06/03 14:04:30;;;;;;;;;;;25.10;54.70;;;;;;5077651;28;19928;-77
2022/06/03 14:06:58;;;;;;;;;;;25.20;54.70;;;;;;5078431;28;20069;-77
2022/06/03 14:09:27;;;;;;;;;;;25.20;54.70;;;;;;5076255;28;19924;-75
2022/06/03 14:11:56;;;;;;;;;;;25.20;54.60;;;;;;5081213;28;20023;-74
2022/06/03 14:14:29;;;;;;;;;;;25.20;54.60;;;;;;5077999;28;19935;-75
2022/06/03 14:16:58;;;;;;;;;;;25.20;54.60;;;;;;5077204;28;19935;-76
2022/06/03 14:19:32;;;;;;;;;;;25.20;54.50;;;;;;5072202;28;19935;-76
2022/06/03 14:22:03;;;;;;;;;;;25.20;54.50;;;;;;5076313;28;20364;-74
2022/06/03 14:24:31;;;;;;;;;;;25.20;54.50;;;;;;5080107;28;20299;-75
2022/06/03 14:27:01;;;;;;;;;;;25.20;54.50;;;;;;5073412;28;19936;-78
2022/06/03 14:29:32;;;;;;;;;;;25.20;54.50;;;;;;5070830;28;19928;-77
2022/06/03 14:32:01;;;;;;;;;;;25.20;54.50;;;;;;5076394;28;19924;-74
2022/06/03 14:34:29;;;;;;;;;;;25.20;54.40;;;;;;5076072;28;19928;-74
2022/06/03 14:36:58;;;;;;;;;;;25.30;54.50;;;;;;5076869;28;19932;-78
2022/06/03 14:39:26;;;;;;;;;;;25.30;54.40;;;;;;5074914;28;19936;-76
2022/06/03 14:41:54;;;;;;;;;;;25.30;54.30;;;;;;5077739;28;19928;-77
2022/06/03 14:44:23;;;;;;;;;;;25.30;54.30;;;;;;5077052;28;19935;-78
2022/06/03 14:46:54;;;;;;;;;;;25.30;54.30;;;;;;5068312;28;19943;-77
2022/06/03 14:49:23;;;;;;;;;;;25.30;54.30;;;;;;5073704;28;20650;-74
2022/06/03 14:51:50;;;;;;;;;;;25.30;54.30;;;;;;5072493;28;19931;-75
2022/06/03 14:54:18;;;;;;;;;;;25.30;54.30;;;;;;5073201;28;19981;-76
2022/06/03 14:56:46;;;;;;;;;;;25.30;54.30;;;;;;5075741;28;19958;-74
2022/06/03 14:59:21;;;;;;;;;;;25.30;54.30;;;;;;5073614;28;20320;-73
2022/06/03 15:01:49;;;;;;;;;;;25.30;54.20;;;;;;5074607;28;19940;-74
2022/06/03 15:04:21;;;;;;;;;;;25.40;54.30;;;;;;5071629;28;19932;-74
2022/06/03 15:06:50;;;;;;;;;;;25.40;54.20;;;;;;5069839;28;19928;-74
2022/06/03 15:09:18;;;;;;;;;;;25.40;54.20;;;;;;5072229;28;19928;-72
2022/06/03 15:11:46;;;;;;;;;;;25.40;54.20;;;;;;5073616;28;19934;-73
2022/06/03 15:14:14;;;;;;;;;;;25.40;54.20;;;;;;5074922;28;19981;-72
2022/06/03 15:16:48;;;;;;;;;;;25.40;54.30;;;;;;5073669;28;19928;-73
2022/06/03 15:19:15;;;;;;;;;;;25.40;54.20;;;;;;5072127;28;19931;-73
2022/06/03 15:21:43;;;;;;;;;;;25.40;54.00;;;;;;5072995;28;19931;-73
2022/06/03 15:24:10;;;;;;;;;;;25.40;53.90;;;;;;5075558;28;20009;-72
2022/06/03 15:26:38;;;;;;;;;;;25.40;54.00;;;;;;5073505;28;19932;-73
2022/06/03 15:29:06;;;;;;;;;;;25.40;53.90;;;;;;5074861;28;19932;-73
2022/06/03 15:31:35;;;;;;;;;;;25.40;53.80;;;;;;5075131;28;19935;-73
2022/06/03 15:34:03;;;;;;;;;;;25.40;53.70;;;;;;5073045;28;20528;-72
2022/06/03 15:36:34;;;;;;;;;;;25.50;53.60;;;;;;5076177;28;19990;-73
2022/06/03 15:39:14;;;;;;;;;;;25.40;53.40;;;;;;5076337;28;19929;-74